sensor_id;sensor_type;location;lat;lon;timestamp;P1;durP1;ratioP1;P2;durP2;ratioP2
57309;SDS011;43153;50.984;18.204;2023-07-02T00:00:03;19.90;;;9.80;;
57309;SDS011;43153;50.984;18.204;2023-07-02T00:02:30;21.50;;;9.70;;
57309;SDS011;43153;50.984;18.204;2023-07-02T00:04:58;18.20;;;9.80;;
57309;SDS011;43153;50.984;18.204;2023-07-02T00:07:24;16.70;;;8.90;;
57309;SDS011;43153;50.984;18.204;2023-07-02T00:09:52;20.90;;;8.80;;
57309;SDS011;43153;50.984;18.204;2023-07-02T00:12:21;21.80;;;9.90;;
57309;SDS011;43153;50.984;18.204;2023-07-02T00:14:47;18.40;;;10.10;;
57309;SDS011;43153;50.984;18.204;2023-07-02T00:17:14;20.30;;;9.20;;
57309;SDS011;43153;50.984;18.204;2023-07-02T00:19:40;19.90;;;9.00;;
57309;SDS011;43153;50.984;18.204;2023-07-02T00:22:10;15.40;;;8.40;;
57309;SDS011;43153;50.984;18.204;2023-07-02T00:24:35;15.80;;;9.10;;
57309;SDS011;43153;50.984;18.204;2023-07-02T00:27:03;21.20;;;10.50;;
57309;SDS011;43153;50.984;18.204;2023-07-02T00:29:29;19.50;;;9.20;;
57309;SDS011;43153;50.984;18.204;2023-07-02T00:31:55;17.00;;;8.00;;
57309;SDS011;43153;50.984;18.204;2023-07-02T00:34:21;15.90;;;7.70;;
57309;SDS011;43153;50.984;18.204;2023-07-02T00:36:47;17.70;;;8.70;;
57309;SDS011;43153;50.984;18.204;2023-07-02T00:39:13;18.70;;;9.10;;
57309;SDS011;43153;50.984;18.204;2023-07-02T00:41:39;15.60;;;8.40;;
57309;SDS011;43153;50.984;18.204;2023-07-02T00:44:08;17.70;;;8.90;;
57309;SDS011;43153;50.984;18.204;2023-07-02T00:46:37;19.10;;;8.40;;
57309;SDS011;43153;50.984;18.204;2023-07-02T00:49:04;18.80;;;9.10;;
57309;SDS011;43153;50.984;18.204;2023-07-02T00:51:31;18.50;;;8.00;;
57309;SDS011;43153;50.984;18.204;2023-07-02T00:53:58;23.60;;;7.80;;
57309;SDS011;43153;50.984;18.204;2023-07-02T00:56:26;18.00;;;8.10;;
57309;SDS011;43153;50.984;18.204;2023-07-02T00:58:55;21.00;;;10.20;;
57309;SDS011;43153;50.984;18.204;2023-07-02T01:01:24;18.90;;;7.60;;
57309;SDS011;43153;50.984;18.204;2023-07-02T01:04:02;19.40;;;8.00;;
57309;SDS011;43153;50.984;18.204;2023-07-02T01:06:30;16.40;;;8.30;;
57309;SDS011;43153;50.984;18.204;2023-07-02T01:09:04;20.90;;;9.60;;
57309;SDS011;43153;50.984;18.204;2023-07-02T01:11:34;21.30;;;7.60;;
57309;SDS011;43153;50.984;18.204;2023-07-02T01:14:14;17.70;;;8.10;;
57309;SDS011;43153;50.984;18.204;2023-07-02T01:16:46;22.70;;;8.00;;
57309;SDS011;43153;50.984;18.204;2023-07-02T01:19:18;18.80;;;8.20;;
57309;SDS011;43153;50.984;18.204;2023-07-02T01:21:48;15.10;;;7.30;;
57309;SDS011;43153;50.984;18.204;2023-07-02T01:24:16;16.30;;;8.20;;
57309;SDS011;43153;50.984;18.204;2023-07-02T01:26:44;15.50;;;6.40;;
57309;SDS011;43153;50.984;18.204;2023-07-02T01:29:14;21.40;;;7.80;;
57309;SDS011;43153;50.984;18.204;2023-07-02T01:31:44;16.40;;;7.70;;
57309;SDS011;43153;50.984;18.204;2023-07-02T01:34:11;16.60;;;8.00;;
57309;SDS011;43153;50.984;18.204;2023-07-02T01:36:38;18.00;;;7.00;;
57309;SDS011;43153;50.984;18.204;2023-07-02T01:39:06;16.00;;;7.00;;
57309;SDS011;43153;50.984;18.204;2023-07-02T01:41:48;15.90;;;7.10;;
57309;SDS011;43153;50.984;18.204;2023-07-02T01:44:16;14.10;;;7.50;;
57309;SDS011;43153;50.984;18.204;2023-07-02T01:46:44;15.40;;;7.80;;
57309;SDS011;43153;50.984;18.204;2023-07-02T01:49:20;19.60;;;7.40;;
57309;SDS011;43153;50.984;18.204;2023-07-02T01:51:52;16.10;;;7.20;;
57309;SDS011;43153;50.984;18.204;2023-07-02T01:54:21;18.70;;;7.10;;
57309;SDS011;43153;50.984;18.204;2023-07-02T01:56:48;16.30;;;7.50;;
57309;SDS011;43153;50.984;18.204;2023-07-02T01:59:14;17.10;;;7.60;;
57309;SDS011;43153;50.984;18.204;2023-07-02T02:01:42;11.60;;;5.90;;
57309;SDS011;43153;50.984;18.204;2023-07-02T02:04:09;16.50;;;6.20;;
57309;SDS011;43153;50.984;18.204;2023-07-02T02:06:36;11.60;;;6.40;;
57309;SDS011;43153;50.984;18.204;2023-07-02T02:09:06;14.70;;;6.80;;
57309;SDS011;43153;50.984;18.204;2023-07-02T02:11:33;13.40;;;6.90;;
57309;SDS011;43153;50.984;18.204;2023-07-02T02:14:06;13.70;;;7.60;;
57309;SDS011;43153;50.984;18.204;2023-07-02T02:16:33;13.40;;;6.20;;
57309;SDS011;43153;50.984;18.204;2023-07-02T02:18:59;12.80;;;6.10;;
57309;SDS011;43153;50.984;18.204;2023-07-02T02:21:26;16.70;;;6.40;;
57309;SDS011;43153;50.984;18.204;2023-07-02T02:23:53;17.40;;;6.90;;
57309;SDS011;43153;50.984;18.204;2023-07-02T02:26:21;16.20;;;6.50;;
57309;SDS011;43153;50.984;18.204;2023-07-02T02:28:48;15.70;;;6.50;;
57309;SDS011;43153;50.984;18.204;2023-07-02T02:31:17;13.40;;;6.60;;
57309;SDS011;43153;50.984;18.204;2023-07-02T02:33:43;14.30;;;6.30;;
57309;SDS011;43153;50.984;18.204;2023-07-02T02:36:10;16.30;;;6.50;;
57309;SDS011;43153;50.984;18.204;2023-07-02T02:38:36;16.10;;;6.20;;
57309;SDS011;43153;50.984;18.204;2023-07-02T02:41:03;15.00;;;6.20;;
57309;SDS011;43153;50.984;18.204;2023-07-02T02:43:30;14.70;;;6.30;;
57309;SDS011;43153;50.984;18.204;2023-07-02T02:45:58;13.70;;;6.60;;
57309;SDS011;43153;50.984;18.204;2023-07-02T02:48:25;12.60;;;6.10;;
57309;SDS011;43153;50.984;18.204;2023-07-02T02:50:51;12.80;;;5.60;;
57309;SDS011;43153;50.984;18.204;2023-07-02T02:53:17;13.90;;;6.30;;
57309;SDS011;43153;50.984;18.204;2023-07-02T02:55:43;13.10;;;6.10;;
57309;SDS011;43153;50.984;18.204;2023-07-02T02:58:10;12.40;;;6.10;;
57309;SDS011;43153;50.984;18.204;2023-07-02T03:00:36;12.50;;;6.00;;
57309;SDS011;43153;50.984;18.204;2023-07-02T03:03:08;12.20;;;6.30;;
57309;SDS011;43153;50.984;18.204;2023-07-02T03:05:36;20.30;;;6.10;;
57309;SDS011;43153;50.984;18.204;2023-07-02T03:08:06;12.00;;;6.10;;
57309;SDS011;43153;50.984;18.204;2023-07-02T03:10:34;15.60;;;6.50;;
57309;SDS011;43153;50.984;18.204;2023-07-02T03:13:00;11.30;;;5.60;;
57309;SDS011;43153;50.984;18.204;2023-07-02T03:15:28;18.90;;;5.80;;
57309;SDS011;43153;50.984;18.204;2023-07-02T03:17:54;14.20;;;6.40;;
57309;SDS011;43153;50.984;18.204;2023-07-02T03:20:20;14.90;;;6.50;;
57309;SDS011;43153;50.984;18.204;2023-07-02T03:22:46;12.50;;;6.60;;
57309;SDS011;43153;50.984;18.204;2023-07-02T03:25:12;13.30;;;5.30;;
57309;SDS011;43153;50.984;18.204;2023-07-02T03:27:38;12.00;;;5.30;;
57309;SDS011;43153;50.984;18.204;2023-07-02T03:30:11;12.40;;;5.10;;
57309;SDS011;43153;50.984;18.204;2023-07-02T03:32:40;12.90;;;5.90;;
57309;SDS011;43153;50.984;18.204;2023-07-02T03:35:09;12.20;;;5.30;;
57309;SDS011;43153;50.984;18.204;2023-07-02T03:37:36;10.90;;;4.90;;
57309;SDS011;43153;50.984;18.204;2023-07-02T03:40:01;12.80;;;4.90;;
57309;SDS011;43153;50.984;18.204;2023-07-02T03:42:28;9.40;;;5.10;;
57309;SDS011;43153;50.984;18.204;2023-07-02T03:44:53;10.60;;;4.50;;
57309;SDS011;43153;50.984;18.204;2023-07-02T03:47:21;10.80;;;4.50;;
57309;SDS011;43153;50.984;18.204;2023-07-02T03:49:49;10.50;;;3.70;;
57309;SDS011;43153;50.984;18.204;2023-07-02T03:52:16;17.30;;;4.50;;
57309;SDS011;43153;50.984;18.204;2023-07-02T03:54:42;12.00;;;4.60;;
57309;SDS011;43153;50.984;18.204;2023-07-02T03:57:10;10.30;;;4.50;;
57309;SDS011;43153;50.984;18.204;2023-07-02T03:59:36;10.00;;;4.70;;
57309;SDS011;43153;50.984;18.204;2023-07-02T04:02:04;9.30;;;4.10;;
57309;SDS011;43153;50.984;18.204;2023-07-02T04:04:33;9.70;;;3.50;;
57309;SDS011;43153;50.984;18.204;2023-07-02T04:06:59;12.20;;;3.60;;
57309;SDS011;43153;50.984;18.204;2023-07-02T04:09:27;9.60;;;4.20;;
57309;SDS011;43153;50.984;18.204;2023-07-02T04:11:52;7.80;;;3.40;;
57309;SDS011;43153;50.984;18.204;2023-07-02T04:14:18;8.80;;;2.90;;
57309;SDS011;43153;50.984;18.204;2023-07-02T04:16:46;8.00;;;3.20;;
57309;SDS011;43153;50.984;18.204;2023-07-02T04:19:12;6.30;;;2.40;;
57309;SDS011;43153;50.984;18.204;2023-07-02T04:21:39;9.60;;;3.10;;
57309;SDS011;43153;50.984;18.204;2023-07-02T04:24:06;8.40;;;2.60;;
57309;SDS011;43153;50.984;18.204;2023-07-02T04:26:34;6.80;;;2.70;;
57309;SDS011;43153;50.984;18.204;2023-07-02T04:29:02;9.30;;;2.50;;
57309;SDS011;43153;50.984;18.204;2023-07-02T04:31:28;8.00;;;2.70;;
57309;SDS011;43153;50.984;18.204;2023-07-02T04:33:57;9.90;;;2.10;;
57309;SDS011;43153;50.984;18.204;2023-07-02T04:36:25;4.60;;;1.80;;
57309;SDS011;43153;50.984;18.204;2023-07-02T04:38:51;5.50;;;1.90;;
57309;SDS011;43153;50.984;18.204;2023-07-02T04:41:23;5.10;;;2.00;;
57309;SDS011;43153;50.984;18.204;2023-07-02T04:43:49;4.90;;;1.80;;
57309;SDS011;43153;50.984;18.204;2023-07-02T04:46:15;5.10;;;2.00;;
57309;SDS011;43153;50.984;18.204;2023-07-02T04:48:43;5.70;;;2.30;;
57309;SDS011;43153;50.984;18.204;2023-07-02T04:51:09;5.00;;;1.90;;
57309;SDS011;43153;50.984;18.204;2023-07-02T04:53:36;6.70;;;1.70;;
57309;SDS011;43153;50.984;18.204;2023-07-02T04:56:03;4.80;;;1.40;;
57309;SDS011;43153;50.984;18.204;2023-07-02T04:58:31;6.90;;;1.90;;
57309;SDS011;43153;50.984;18.204;2023-07-02T05:01:02;3.90;;;1.60;;
57309;SDS011;43153;50.984;18.204;2023-07-02T05:03:32;7.60;;;1.90;;
57309;SDS011;43153;50.984;18.204;2023-07-02T05:06:02;8.00;;;1.60;;
57309;SDS011;43153;50.984;18.204;2023-07-02T05:08:30;5.50;;;1.60;;
57309;SDS011;43153;50.984;18.204;2023-07-02T05:10:56;6.80;;;1.60;;
57309;SDS011;43153;50.984;18.204;2023-07-02T05:13:22;6.10;;;1.50;;
57309;SDS011;43153;50.984;18.204;2023-07-02T05:15:50;4.90;;;1.20;;
57309;SDS011;43153;50.984;18.204;2023-07-02T05:18:20;5.10;;;1.20;;
57309;SDS011;43153;50.984;18.204;2023-07-02T05:20:46;4.30;;;1.20;;
57309;SDS011;43153;50.984;18.204;2023-07-02T05:23:12;8.70;;;1.40;;
57309;SDS011;43153;50.984;18.204;2023-07-02T05:25:38;3.10;;;1.00;;
57309;SDS011;43153;50.984;18.204;2023-07-02T05:28:11;6.70;;;1.50;;
57309;SDS011;43153;50.984;18.204;2023-07-02T05:30:37;2.50;;;0.70;;
57309;SDS011;43153;50.984;18.204;2023-07-02T05:33:03;3.40;;;0.70;;
57309;SDS011;43153;50.984;18.204;2023-07-02T05:35:33;8.80;;;0.90;;
57309;SDS011;43153;50.984;18.204;2023-07-02T05:37:59;3.00;;;0.90;;
57309;SDS011;43153;50.984;18.204;2023-07-02T05:40:26;8.20;;;1.10;;
57309;SDS011;43153;50.984;18.204;2023-07-02T05:42:59;4.40;;;1.00;;
57309;SDS011;43153;50.984;18.204;2023-07-02T05:45:28;3.20;;;1.00;;
57309;SDS011;43153;50.984;18.204;2023-07-02T05:47:54;5.50;;;0.90;;
57309;SDS011;43153;50.984;18.204;2023-07-02T05:50:20;1.20;;;0.50;;
57309;SDS011;43153;50.984;18.204;2023-07-02T05:52:46;3.60;;;0.70;;
57309;SDS011;43153;50.984;18.204;2023-07-02T05:55:15;1.80;;;0.70;;
57309;SDS011;43153;50.984;18.204;2023-07-02T05:57:44;4.50;;;0.80;;
57309;SDS011;43153;50.984;18.204;2023-07-02T06:00:12;2.10;;;0.90;;
57309;SDS011;43153;50.984;18.204;2023-07-02T06:02:39;4.00;;;0.80;;
57309;SDS011;43153;50.984;18.204;2023-07-02T06:05:05;3.30;;;1.10;;
57309;SDS011;43153;50.984;18.204;2023-07-02T06:07:32;4.90;;;0.70;;
57309;SDS011;43153;50.984;18.204;2023-07-02T06:10:02;6.00;;;0.60;;
57309;SDS011;43153;50.984;18.204;2023-07-02T06:12:31;3.20;;;0.90;;
57309;SDS011;43153;50.984;18.204;2023-07-02T06:14:57;3.50;;;0.60;;
57309;SDS011;43153;50.984;18.204;2023-07-02T06:17:25;3.20;;;0.70;;
57309;SDS011;43153;50.984;18.204;2023-07-02T06:19:51;3.60;;;0.50;;
57309;SDS011;43153;50.984;18.204;2023-07-02T06:22:18;3.00;;;0.70;;
57309;SDS011;43153;50.984;18.204;2023-07-02T06:24:44;3.10;;;1.00;;
57309;SDS011;43153;50.984;18.204;2023-07-02T06:27:13;5.00;;;0.70;;
57309;SDS011;43153;50.984;18.204;2023-07-02T06:29:47;4.40;;;0.80;;
57309;SDS011;43153;50.984;18.204;2023-07-02T06:32:17;6.50;;;0.80;;
57309;SDS011;43153;50.984;18.204;2023-07-02T06:34:49;2.90;;;0.90;;
57309;SDS011;43153;50.984;18.204;2023-07-02T06:37:14;4.70;;;0.80;;
57309;SDS011;43153;50.984;18.204;2023-07-02T06:39:43;4.30;;;1.00;;
57309;SDS011;43153;50.984;18.204;2023-07-02T06:42:14;3.10;;;0.90;;
57309;SDS011;43153;50.984;18.204;2023-07-02T06:44:41;3.50;;;0.60;;
57309;SDS011;43153;50.984;18.204;2023-07-02T06:47:08;4.10;;;0.80;;
57309;SDS011;43153;50.984;18.204;2023-07-02T06:49:41;2.70;;;0.90;;
57309;SDS011;43153;50.984;18.204;2023-07-02T06:52:08;4.60;;;0.70;;
57309;SDS011;43153;50.984;18.204;2023-07-02T06:54:34;3.00;;;0.90;;
57309;SDS011;43153;50.984;18.204;2023-07-02T06:57:01;3.40;;;1.10;;
57309;SDS011;43153;50.984;18.204;2023-07-02T06:59:28;2.40;;;1.00;;
57309;SDS011;43153;50.984;18.204;2023-07-02T07:01:55;2.20;;;0.70;;
57309;SDS011;43153;50.984;18.204;2023-07-02T07:04:22;1.80;;;0.70;;
57309;SDS011;43153;50.984;18.204;2023-07-02T07:06:51;2.30;;;0.80;;
57309;SDS011;43153;50.984;18.204;2023-07-02T07:09:18;5.30;;;0.90;;
57309;SDS011;43153;50.984;18.204;2023-07-02T07:11:47;2.40;;;1.00;;
57309;SDS011;43153;50.984;18.204;2023-07-02T07:14:16;1.70;;;0.70;;
57309;SDS011;43153;50.984;18.204;2023-07-02T07:16:44;3.40;;;1.00;;
57309;SDS011;43153;50.984;18.204;2023-07-02T07:19:12;3.40;;;1.20;;
57309;SDS011;43153;50.984;18.204;2023-07-02T07:21:42;4.70;;;1.00;;
57309;SDS011;43153;50.984;18.204;2023-07-02T07:24:09;4.70;;;0.90;;
57309;SDS011;43153;50.984;18.204;2023-07-02T07:26:35;3.90;;;1.40;;
57309;SDS011;43153;50.984;18.204;2023-07-02T07:29:01;2.70;;;0.80;;
57309;SDS011;43153;50.984;18.204;2023-07-02T07:31:28;3.20;;;0.90;;
57309;SDS011;43153;50.984;18.204;2023-07-02T07:33:55;3.00;;;0.60;;
57309;SDS011;43153;50.984;18.204;2023-07-02T07:36:21;1.30;;;0.60;;
57309;SDS011;43153;50.984;18.204;2023-07-02T07:38:48;2.30;;;0.90;;
57309;SDS011;43153;50.984;18.204;2023-07-02T07:41:15;2.00;;;0.80;;
57309;SDS011;43153;50.984;18.204;2023-07-02T07:43:42;2.10;;;0.70;;
57309;SDS011;43153;50.984;18.204;2023-07-02T07:46:12;3.50;;;0.80;;
57309;SDS011;43153;50.984;18.204;2023-07-02T07:48:38;4.30;;;1.40;;
57309;SDS011;43153;50.984;18.204;2023-07-02T07:51:04;3.20;;;1.00;;
57309;SDS011;43153;50.984;18.204;2023-07-02T07:53:30;5.30;;;0.90;;
57309;SDS011;43153;50.984;18.204;2023-07-02T07:55:57;5.20;;;1.10;;
57309;SDS011;43153;50.984;18.204;2023-07-02T07:58:23;4.10;;;0.80;;
57309;SDS011;43153;50.984;18.204;2023-07-02T08:00:50;3.80;;;0.90;;
57309;SDS011;43153;50.984;18.204;2023-07-02T08:03:17;4.00;;;1.10;;
57309;SDS011;43153;50.984;18.204;2023-07-02T08:05:43;2.20;;;0.90;;
57309;SDS011;43153;50.984;18.204;2023-07-02T08:08:09;3.20;;;1.10;;
57309;SDS011;43153;50.984;18.204;2023-07-02T08:10:37;3.10;;;1.20;;
57309;SDS011;43153;50.984;18.204;2023-07-02T08:13:02;5.20;;;1.00;;
57309;SDS011;43153;50.984;18.204;2023-07-02T08:15:29;5.10;;;1.20;;
57309;SDS011;43153;50.984;18.204;2023-07-02T08:17:55;4.40;;;1.10;;
57309;SDS011;43153;50.984;18.204;2023-07-02T08:20:24;2.70;;;0.90;;
57309;SDS011;43153;50.984;18.204;2023-07-02T08:22:50;2.40;;;0.90;;
57309;SDS011;43153;50.984;18.204;2023-07-02T08:25:18;3.80;;;1.00;;
57309;SDS011;43153;50.984;18.204;2023-07-02T08:27:47;3.70;;;1.10;;
57309;SDS011;43153;50.984;18.204;2023-07-02T08:30:17;3.20;;;1.00;;
57309;SDS011;43153;50.984;18.204;2023-07-02T08:32:42;3.00;;;1.00;;
57309;SDS011;43153;50.984;18.204;2023-07-02T08:35:08;2.80;;;1.10;;
57309;SDS011;43153;50.984;18.204;2023-07-02T08:37:36;2.40;;;0.90;;
57309;SDS011;43153;50.984;18.204;2023-07-02T08:40:02;5.60;;;1.10;;
57309;SDS011;43153;50.984;18.204;2023-07-02T09:24:39;4.30;;;1.40;;
57309;SDS011;43153;50.984;18.204;2023-07-02T09:27:11;3.30;;;1.20;;
57309;SDS011;43153;50.984;18.204;2023-07-02T09:29:41;2.10;;;0.90;;
57309;SDS011;43153;50.984;18.204;2023-07-02T09:32:25;4.10;;;1.10;;
57309;SDS011;43153;50.984;18.204;2023-07-02T09:35:03;2.20;;;1.00;;
57309;SDS011;43153;50.984;18.204;2023-07-02T09:37:30;3.50;;;1.20;;
57309;SDS011;43153;50.984;18.204;2023-07-02T09:39:59;2.70;;;1.10;;
57309;SDS011;43153;50.984;18.204;2023-07-02T09:42:27;1.80;;;0.80;;
57309;SDS011;43153;50.984;18.204;2023-07-02T09:44:58;1.80;;;0.80;;
57309;SDS011;43153;50.984;18.204;2023-07-02T09:47:26;3.20;;;1.20;;
57309;SDS011;43153;50.984;18.204;2023-07-02T09:49:59;2.90;;;1.10;;
57309;SDS011;43153;50.984;18.204;2023-07-02T09:52:35;2.80;;;1.10;;
57309;SDS011;43153;50.984;18.204;2023-07-02T09:55:01;2.90;;;1.00;;
57309;SDS011;43153;50.984;18.204;2023-07-02T09:57:29;3.40;;;1.00;;
57309;SDS011;43153;50.984;18.204;2023-07-02T09:59:58;1.50;;;0.70;;
57309;SDS011;43153;50.984;18.204;2023-07-02T10:02:26;2.10;;;0.80;;
57309;SDS011;43153;50.984;18.204;2023-07-02T10:04:52;3.60;;;0.90;;
57309;SDS011;43153;50.984;18.204;2023-07-02T10:07:31;1.80;;;0.80;;
57309;SDS011;43153;50.984;18.204;2023-07-02T10:09:58;3.20;;;0.90;;
57309;SDS011;43153;50.984;18.204;2023-07-02T10:12:30;1.60;;;0.80;;
57309;SDS011;43153;50.984;18.204;2023-07-02T10:14:57;2.80;;;1.00;;
57309;SDS011;43153;50.984;18.204;2023-07-02T10:17:24;3.00;;;1.00;;
57309;SDS011;43153;50.984;18.204;2023-07-02T10:19:55;3.00;;;1.10;;
57309;SDS011;43153;50.984;18.204;2023-07-02T10:22:24;3.70;;;0.90;;
57309;SDS011;43153;50.984;18.204;2023-07-02T10:24:56;2.40;;;1.00;;
57309;SDS011;43153;50.984;18.204;2023-07-02T10:27:36;1.90;;;0.70;;
57309;SDS011;43153;50.984;18.204;2023-07-02T10:30:04;1.80;;;0.80;;
57309;SDS011;43153;50.984;18.204;2023-07-02T10:32:32;2.30;;;1.00;;
57309;SDS011;43153;50.984;18.204;2023-07-02T10:35:00;2.50;;;1.00;;
57309;SDS011;43153;50.984;18.204;2023-07-02T10:37:39;2.20;;;0.70;;
57309;SDS011;43153;50.984;18.204;2023-07-02T10:40:08;2.00;;;1.00;;
57309;SDS011;43153;50.984;18.204;2023-07-02T10:42:50;2.70;;;0.80;;
57309;SDS011;43153;50.984;18.204;2023-07-02T10:45:16;2.90;;;0.80;;
57309;SDS011;43153;50.984;18.204;2023-07-02T10:47:44;3.00;;;0.80;;
57309;SDS011;43153;50.984;18.204;2023-07-02T10:50:18;5.60;;;1.30;;
57309;SDS011;43153;50.984;18.204;2023-07-02T10:52:48;3.40;;;0.80;;
57309;SDS011;43153;50.984;18.204;2023-07-02T10:55:19;2.60;;;0.80;;
57309;SDS011;43153;50.984;18.204;2023-07-02T10:57:50;3.70;;;1.00;;
57309;SDS011;43153;50.984;18.204;2023-07-02T11:00:29;2.80;;;0.80;;
57309;SDS011;43153;50.984;18.204;2023-07-02T11:03:15;3.00;;;1.00;;
57309;SDS011;43153;50.984;18.204;2023-07-02T11:05:49;4.10;;;0.90;;
57309;SDS011;43153;50.984;18.204;2023-07-02T11:08:17;2.20;;;0.90;;
57309;SDS011;43153;50.984;18.204;2023-07-02T11:10:51;2.70;;;1.10;;
57309;SDS011;43153;50.984;18.204;2023-07-02T11:13:31;3.60;;;1.10;;
57309;SDS011;43153;50.984;18.204;2023-07-02T11:15:59;2.60;;;1.10;;
57309;SDS011;43153;50.984;18.204;2023-07-02T11:18:29;3.10;;;0.90;;
57309;SDS011;43153;50.984;18.204;2023-07-02T11:20:57;5.30;;;1.20;;
57309;SDS011;43153;50.984;18.204;2023-07-02T11:23:23;2.90;;;1.00;;
57309;SDS011;43153;50.984;18.204;2023-07-02T11:25:54;3.60;;;1.20;;
57309;SDS011;43153;50.984;18.204;2023-07-02T11:28:23;4.10;;;1.30;;
57309;SDS011;43153;50.984;18.204;2023-07-02T11:30:50;2.20;;;1.10;;
57309;SDS011;43153;50.984;18.204;2023-07-02T11:33:16;3.90;;;1.40;;
57309;SDS011;43153;50.984;18.204;2023-07-02T11:35:46;2.90;;;1.30;;
57309;SDS011;43153;50.984;18.204;2023-07-02T11:38:14;2.40;;;1.00;;
57309;SDS011;43153;50.984;18.204;2023-07-02T11:40:44;3.10;;;1.20;;
57309;SDS011;43153;50.984;18.204;2023-07-02T11:43:14;5.20;;;1.40;;
57309;SDS011;43153;50.984;18.204;2023-07-02T11:45:42;3.90;;;1.30;;
57309;SDS011;43153;50.984;18.204;2023-07-02T11:48:09;3.10;;;1.30;;
57309;SDS011;43153;50.984;18.204;2023-07-02T11:50:38;6.20;;;1.40;;
57309;SDS011;43153;50.984;18.204;2023-07-02T11:53:05;4.00;;;1.60;;
57309;SDS011;43153;50.984;18.204;2023-07-02T11:55:30;2.70;;;1.00;;
57309;SDS011;43153;50.984;18.204;2023-07-02T11:57:56;1.90;;;1.10;;
57309;SDS011;43153;50.984;18.204;2023-07-02T12:00:23;4.30;;;1.20;;
57309;SDS011;43153;50.984;18.204;2023-07-02T12:02:49;4.20;;;1.20;;
57309;SDS011;43153;50.984;18.204;2023-07-02T12:05:15;5.60;;;1.50;;
57309;SDS011;43153;50.984;18.204;2023-07-02T12:07:44;4.60;;;1.40;;
57309;SDS011;43153;50.984;18.204;2023-07-02T12:10:12;3.90;;;1.20;;
57309;SDS011;43153;50.984;18.204;2023-07-02T12:12:39;3.60;;;1.30;;
57309;SDS011;43153;50.984;18.204;2023-07-02T12:15:05;6.20;;;1.70;;
57309;SDS011;43153;50.984;18.204;2023-07-02T12:17:31;4.80;;;1.20;;
57309;SDS011;43153;50.984;18.204;2023-07-02T12:19:57;4.30;;;1.40;;
57309;SDS011;43153;50.984;18.204;2023-07-02T12:22:25;3.30;;;1.10;;
57309;SDS011;43153;50.984;18.204;2023-07-02T12:24:51;2.10;;;0.90;;
57309;SDS011;43153;50.984;18.204;2023-07-02T12:27:24;2.80;;;1.10;;
57309;SDS011;43153;50.984;18.204;2023-07-02T12:29:55;4.90;;;1.50;;
57309;SDS011;43153;50.984;18.204;2023-07-02T12:32:23;3.60;;;1.30;;
57309;SDS011;43153;50.984;18.204;2023-07-02T12:34:49;5.10;;;1.40;;
57309;SDS011;43153;50.984;18.204;2023-07-02T12:37:15;3.10;;;1.20;;
57309;SDS011;43153;50.984;18.204;2023-07-02T12:39:43;1.90;;;0.80;;
57309;SDS011;43153;50.984;18.204;2023-07-02T12:42:09;3.50;;;1.10;;
57309;SDS011;43153;50.984;18.204;2023-07-02T12:44:37;3.50;;;1.00;;
57309;SDS011;43153;50.984;18.204;2023-07-02T12:47:05;2.90;;;1.00;;
57309;SDS011;43153;50.984;18.204;2023-07-02T12:49:31;2.70;;;1.20;;
57309;SDS011;43153;50.984;18.204;2023-07-02T12:51:57;2.30;;;0.90;;
57309;SDS011;43153;50.984;18.204;2023-07-02T12:54:25;2.70;;;0.70;;
57309;SDS011;43153;50.984;18.204;2023-07-02T12:56:52;3.30;;;0.80;;
57309;SDS011;43153;50.984;18.204;2023-07-02T12:59:21;2.50;;;1.00;;
57309;SDS011;43153;50.984;18.204;2023-07-02T13:01:47;1.80;;;0.70;;
57309;SDS011;43153;50.984;18.204;2023-07-02T13:04:15;2.80;;;0.80;;
57309;SDS011;43153;50.984;18.204;2023-07-02T13:06:42;2.90;;;0.80;;
57309;SDS011;43153;50.984;18.204;2023-07-02T13:09:13;1.30;;;0.50;;
57309;SDS011;43153;50.984;18.204;2023-07-02T13:11:40;3.10;;;0.70;;
57309;SDS011;43153;50.984;18.204;2023-07-02T13:14:06;3.30;;;1.00;;
57309;SDS011;43153;50.984;18.204;2023-07-02T13:16:36;2.70;;;0.90;;
57309;SDS011;43153;50.984;18.204;2023-07-02T13:19:03;1.80;;;0.70;;
57309;SDS011;43153;50.984;18.204;2023-07-02T13:21:30;2.70;;;1.10;;
57309;SDS011;43153;50.984;18.204;2023-07-02T13:23:59;2.60;;;0.90;;
57309;SDS011;43153;50.984;18.204;2023-07-02T13:26:41;3.40;;;0.90;;
57309;SDS011;43153;50.984;18.204;2023-07-02T13:29:08;2.10;;;0.70;;
57309;SDS011;43153;50.984;18.204;2023-07-02T13:31:37;6.20;;;0.90;;
57309;SDS011;43153;50.984;18.204;2023-07-02T13:34:05;2.60;;;0.80;;
57309;SDS011;43153;50.984;18.204;2023-07-02T13:36:31;1.90;;;0.70;;
57309;SDS011;43153;50.984;18.204;2023-07-02T13:38:57;3.70;;;0.90;;
57309;SDS011;43153;50.984;18.204;2023-07-02T13:41:25;4.20;;;0.70;;
57309;SDS011;43153;50.984;18.204;2023-07-02T13:43:57;2.80;;;0.90;;
57309;SDS011;43153;50.984;18.204;2023-07-02T13:46:23;2.10;;;0.80;;
57309;SDS011;43153;50.984;18.204;2023-07-02T13:48:51;3.80;;;1.10;;
57309;SDS011;43153;50.984;18.204;2023-07-02T13:51:17;2.10;;;0.80;;
57309;SDS011;43153;50.984;18.204;2023-07-02T13:53:43;3.20;;;1.10;;
57309;SDS011;43153;50.984;18.204;2023-07-02T13:56:10;4.50;;;0.90;;
57309;SDS011;43153;50.984;18.204;2023-07-02T14:01:25;2.30;;;0.90;;
57309;SDS011;43153;50.984;18.204;2023-07-02T14:03:52;4.70;;;0.90;;
57309;SDS011;43153;50.984;18.204;2023-07-02T14:06:21;2.80;;;0.80;;
57309;SDS011;43153;50.984;18.204;2023-07-02T14:08:47;4.00;;;0.70;;
57309;SDS011;43153;50.984;18.204;2023-07-02T14:11:18;4.20;;;1.10;;
57309;SDS011;43153;50.984;18.204;2023-07-02T14:13:44;4.80;;;1.30;;
57309;SDS011;43153;50.984;18.204;2023-07-02T14:16:14;3.20;;;0.80;;
57309;SDS011;43153;50.984;18.204;2023-07-02T14:18:40;4.70;;;1.10;;
57309;SDS011;43153;50.984;18.204;2023-07-02T14:21:08;1.90;;;0.80;;
57309;SDS011;43153;50.984;18.204;2023-07-02T14:23:35;4.10;;;0.90;;
57309;SDS011;43153;50.984;18.204;2023-07-02T14:26:01;4.10;;;0.90;;
57309;SDS011;43153;50.984;18.204;2023-07-02T14:28:27;3.20;;;1.00;;
57309;SDS011;43153;50.984;18.204;2023-07-02T14:30:58;3.30;;;1.30;;
57309;SDS011;43153;50.984;18.204;2023-07-02T14:33:33;2.70;;;0.90;;
57309;SDS011;43153;50.984;18.204;2023-07-02T14:36:00;2.50;;;0.90;;
57309;SDS011;43153;50.984;18.204;2023-07-02T14:38:28;4.00;;;0.90;;
57309;SDS011;43153;50.984;18.204;2023-07-02T14:40:55;2.40;;;1.00;;
57309;SDS011;43153;50.984;18.204;2023-07-02T14:43:26;3.30;;;1.20;;
57309;SDS011;43153;50.984;18.204;2023-07-02T14:45:57;5.50;;;0.90;;
57309;SDS011;43153;50.984;18.204;2023-07-02T14:48:29;3.40;;;0.80;;
57309;SDS011;43153;50.984;18.204;2023-07-02T14:50:57;3.70;;;1.00;;
57309;SDS011;43153;50.984;18.204;2023-07-02T14:53:29;9.20;;;1.10;;
57309;SDS011;43153;50.984;18.204;2023-07-02T14:55:58;23.30;;;14.50;;
57309;SDS011;43153;50.984;18.204;2023-07-02T14:58:26;5.40;;;2.50;;
57309;SDS011;43153;50.984;18.204;2023-07-02T15:00:55;2.80;;;1.10;;
57309;SDS011;43153;50.984;18.204;2023-07-02T15:03:23;4.20;;;0.90;;
57309;SDS011;43153;50.984;18.204;2023-07-02T15:05:50;5.10;;;0.90;;
57309;SDS011;43153;50.984;18.204;2023-07-02T15:08:18;2.10;;;0.90;;
57309;SDS011;43153;50.984;18.204;2023-07-02T15:10:49;4.60;;;0.80;;
57309;SDS011;43153;50.984;18.204;2023-07-02T15:13:18;3.30;;;0.80;;
57309;SDS011;43153;50.984;18.204;2023-07-02T15:54:13;3.50;;;1.00;;
57309;SDS011;43153;50.984;18.204;2023-07-02T15:56:39;4.00;;;0.80;;
57309;SDS011;43153;50.984;18.204;2023-07-02T15:59:05;3.60;;;0.90;;